Terminal Aerodrome Forecast
Issued by NWS

Current Version | Previous Version | Graphics & Text | Print | Product List | Glossary On
Versions: 1 2 3 4 5 6 7 8 9 10 11 12 13 14 15 16 17 18 19 20 21 22
000
FTUS41 KILN 142338
TAFLCK
TAF
KLCK 142338Z 1500/1524 30005KT 4SM BR OVC006
      TEMPO 1500/1502 2SM -FZDZ BR OVC003
     FM150300 33005KT P6SM OVC015
     FM150700 01004KT P6SM BKN035
     FM151500 06005KT P6SM BKN040=

USA.gov is the U.S. government's official web portal to all federal, state and local government web resources and services.